sensor_id;sensor_type;location;lat;lon;timestamp;temperature;humidity
36690;DHT22;22676;51.120;3.702;2022-09-29T00:02:37;21.10;54.20
36690;DHT22;22676;51.120;3.702;2022-09-29T00:05:51;21.10;54.10
36690;DHT22;22676;51.120;3.702;2022-09-29T00:08:42;21.00;54.10
36690;DHT22;22676;51.120;3.702;2022-09-29T00:11:33;21.10;54.10
36690;DHT22;22676;51.120;3.702;2022-09-29T00:14:24;21.10;54.00
36690;DHT22;22676;51.120;3.702;2022-09-29T00:17:15;21.10;53.90
36690;DHT22;22676;51.120;3.702;2022-09-29T00:20:06;21.10;53.90
36690;DHT22;22676;51.120;3.702;2022-09-29T00:22:57;21.10;53.80
36690;DHT22;22676;51.120;3.702;2022-09-29T00:25:57;21.10;53.80
36690;DHT22;22676;51.120;3.702;2022-09-29T00:28:52;21.10;53.80
36690;DHT22;22676;51.120;3.702;2022-09-29T00:31:43;21.10;53.80
36690;DHT22;22676;51.120;3.702;2022-09-29T00:34:35;21.10;53.80
36690;DHT22;22676;51.120;3.702;2022-09-29T00:37:25;21.00;53.80
36690;DHT22;22676;51.120;3.702;2022-09-29T00:40:16;21.00;52.60
36690;DHT22;22676;51.120;3.702;2022-09-29T00:43:09;20.90;52.50
36690;DHT22;22676;51.120;3.702;2022-09-29T00:46:03;20.90;53.60
36690;DHT22;22676;51.120;3.702;2022-09-29T00:48:54;21.00;53.60
36690;DHT22;22676;51.120;3.702;2022-09-29T00:52:33;21.00;53.60
36690;DHT22;22676;51.120;3.702;2022-09-29T00:54:58;21.00;53.50
36690;DHT22;22676;51.120;3.702;2022-09-29T00:57:54;21.00;53.50
36690;DHT22;22676;51.120;3.702;2022-09-29T01:00:46;21.00;53.60
36690;DHT22;22676;51.120;3.702;2022-09-29T05:06:07;21.20;52.90
36690;DHT22;22676;51.120;3.702;2022-09-29T05:08:53;21.20;52.70
36690;DHT22;22676;51.120;3.702;2022-09-29T05:11:38;21.10;52.60
36690;DHT22;22676;51.120;3.702;2022-09-29T05:14:24;21.10;52.60
36690;DHT22;22676;51.120;3.702;2022-09-29T05:17:09;21.10;52.70
36690;DHT22;22676;51.120;3.702;2022-09-29T05:19:55;21.10;52.80
36690;DHT22;22676;51.120;3.702;2022-09-29T05:22:40;21.10;52.90
36690;DHT22;22676;51.120;3.702;2022-09-29T05:25:26;21.10;52.80
36690;DHT22;22676;51.120;3.702;2022-09-29T05:28:32;21.20;52.80
36690;DHT22;22676;51.120;3.702;2022-09-29T06:31:05;22.30;51.00
36690;DHT22;22676;51.120;3.702;2022-09-29T06:33:59;22.20;51.00
36690;DHT22;22676;51.120;3.702;2022-09-29T06:36:50;22.20;51.40
36690;DHT22;22676;51.120;3.702;2022-09-29T06:39:42;22.20;50.60
36690;DHT22;22676;51.120;3.702;2022-09-29T06:42:32;22.30;50.30
36690;DHT22;22676;51.120;3.702;2022-09-29T06:45:24;22.30;50.20
36690;DHT22;22676;51.120;3.702;2022-09-29T06:48:14;22.20;50.40
36690;DHT22;22676;51.120;3.702;2022-09-29T06:51:06;22.20;50.70
36690;DHT22;22676;51.120;3.702;2022-09-29T06:53:56;22.30;51.10
36690;DHT22;22676;51.120;3.702;2022-09-29T06:56:48;22.40;51.00
36690;DHT22;22676;51.120;3.702;2022-09-29T06:59:38;22.40;50.90
36690;DHT22;22676;51.120;3.702;2022-09-29T07:02:29;22.40;50.90
36690;DHT22;22676;51.120;3.702;2022-09-29T07:08:45;22.40;50.90
36690;DHT22;22676;51.120;3.702;2022-09-29T07:11:35;22.40;51.40
36690;DHT22;22676;51.120;3.702;2022-09-29T07:14:25;22.50;51.10
36690;DHT22;22676;51.120;3.702;2022-09-29T07:17:16;22.50;51.00
36690;DHT22;22676;51.120;3.702;2022-09-29T07:20:07;22.50;50.90
36690;DHT22;22676;51.120;3.702;2022-09-29T07:22:58;22.50;50.80
36690;DHT22;22676;51.120;3.702;2022-09-29T07:25:49;22.50;50.80
36690;DHT22;22676;51.120;3.702;2022-09-29T07:28:41;22.40;50.70
36690;DHT22;22676;51.120;3.702;2022-09-29T07:31:31;22.40;50.80
36690;DHT22;22676;51.120;3.702;2022-09-29T07:34:23;22.40;50.80
36690;DHT22;22676;51.120;3.702;2022-09-29T07:37:13;22.40;50.80
36690;DHT22;22676;51.120;3.702;2022-09-29T07:40:03;22.40;50.90
36690;DHT22;22676;51.120;3.702;2022-09-29T07:42:55;22.40;50.80
36690;DHT22;22676;51.120;3.702;2022-09-29T07:48:55;22.30;50.50
36690;DHT22;22676;51.120;3.702;2022-09-29T07:51:45;22.30;50.60
36690;DHT22;22676;51.120;3.702;2022-09-29T07:54:36;22.30;50.60
36690;DHT22;22676;51.120;3.702;2022-09-29T07:57:26;22.30;50.60
36690;DHT22;22676;51.120;3.702;2022-09-29T08:00:17;22.30;50.70
36690;DHT22;22676;51.120;3.702;2022-09-29T12:55:01;22.70;52.70
36690;DHT22;22676;51.120;3.702;2022-09-29T14:14:58;22.80;52.90
36690;DHT22;22676;51.120;3.702;2022-09-29T14:17:52;22.80;52.90
36690;DHT22;22676;51.120;3.702;2022-09-29T14:20:57;22.80;53.00
36690;DHT22;22676;51.120;3.702;2022-09-29T14:23:49;22.80;53.00
36690;DHT22;22676;51.120;3.702;2022-09-29T14:29:31;22.80;53.00
36690;DHT22;22676;51.120;3.702;2022-09-29T14:35:51;22.80;53.00
36690;DHT22;22676;51.120;3.702;2022-09-29T14:38:39;22.80;53.00
36690;DHT22;22676;51.120;3.702;2022-09-29T14:41:30;22.80;52.90
36690;DHT22;22676;51.120;3.702;2022-09-29T14:44:28;22.70;52.70
36690;DHT22;22676;51.120;3.702;2022-09-29T14:47:37;22.80;53.00
36690;DHT22;22676;51.120;3.702;2022-09-29T14:50:43;22.80;53.00
36690;DHT22;22676;51.120;3.702;2022-09-29T15:24:29;23.00;53.20
36690;DHT22;22676;51.120;3.702;2022-09-29T15:27:24;22.90;53.10
36690;DHT22;22676;51.120;3.702;2022-09-29T15:30:16;23.00;53.10
36690;DHT22;22676;51.120;3.702;2022-09-29T15:36:04;23.00;53.10
36690;DHT22;22676;51.120;3.702;2022-09-29T15:39:00;22.90;52.50
36690;DHT22;22676;51.120;3.702;2022-09-29T15:41:58;22.80;52.60
36690;DHT22;22676;51.120;3.702;2022-09-29T15:44:59;22.80;53.10
36690;DHT22;22676;51.120;3.702;2022-09-29T15:47:56;22.90;53.10
36690;DHT22;22676;51.120;3.702;2022-09-29T15:50:47;22.90;52.90
36690;DHT22;22676;51.120;3.702;2022-09-29T15:53:38;22.90;52.80
36690;DHT22;22676;51.120;3.702;2022-09-29T15:56:30;22.80;52.60
36690;DHT22;22676;51.120;3.702;2022-09-29T15:59:36;22.80;52.60
36690;DHT22;22676;51.120;3.702;2022-09-29T16:05:22;22.80;52.50
36690;DHT22;22676;51.120;3.702;2022-09-29T16:08:22;22.80;52.50
36690;DHT22;22676;51.120;3.702;2022-09-29T16:11:18;22.80;52.40
36690;DHT22;22676;51.120;3.702;2022-09-29T16:14:17;22.80;52.50
36690;DHT22;22676;51.120;3.702;2022-09-29T16:17:08;22.80;53.20
36690;DHT22;22676;51.120;3.702;2022-09-29T16:20:01;22.80;53.60
36690;DHT22;22676;51.120;3.702;2022-09-29T16:22:52;22.70;53.10
36690;DHT22;22676;51.120;3.702;2022-09-29T16:25:43;22.70;53.10
36690;DHT22;22676;51.120;3.702;2022-09-29T16:28:35;22.70;52.80
36690;DHT22;22676;51.120;3.702;2022-09-29T16:31:26;22.70;52.90
36690;DHT22;22676;51.120;3.702;2022-09-29T16:37:14;22.70;52.40
36690;DHT22;22676;51.120;3.702;2022-09-29T16:40:16;22.70;52.20
36690;DHT22;22676;51.120;3.702;2022-09-29T16:43:16;22.70;52.10
36690;DHT22;22676;51.120;3.702;2022-09-29T16:49:19;22.60;52.20
36690;DHT22;22676;51.120;3.702;2022-09-29T16:58:10;22.70;52.10
36690;DHT22;22676;51.120;3.702;2022-09-29T17:01:02;22.70;52.20
36690;DHT22;22676;51.120;3.702;2022-09-29T17:04:07;22.70;52.10
36690;DHT22;22676;51.120;3.702;2022-09-29T17:06:59;22.70;52.00
36690;DHT22;22676;51.120;3.702;2022-09-29T17:09:51;22.60;51.90
36690;DHT22;22676;51.120;3.702;2022-09-29T17:12:42;22.60;51.80
36690;DHT22;22676;51.120;3.702;2022-09-29T17:15:33;22.50;52.00
36690;DHT22;22676;51.120;3.702;2022-09-29T19:42:39;22.20;52.10
36690;DHT22;22676;51.120;3.702;2022-09-29T19:45:32;22.20;52.10
36690;DHT22;22676;51.120;3.702;2022-09-29T19:48:23;22.20;52.00
36690;DHT22;22676;51.120;3.702;2022-09-29T19:51:14;22.20;52.40
36690;DHT22;22676;51.120;3.702;2022-09-29T19:54:05;22.30;52.20
36690;DHT22;22676;51.120;3.702;2022-09-29T19:57:02;22.30;51.90
36690;DHT22;22676;51.120;3.702;2022-09-29T19:59:53;22.20;51.60
36690;DHT22;22676;51.120;3.702;2022-09-29T20:02:44;22.30;51.50
36690;DHT22;22676;51.120;3.702;2022-09-29T20:05:49;22.20;51.30
36690;DHT22;22676;51.120;3.702;2022-09-29T20:08:40;22.20;51.70
36690;DHT22;22676;51.120;3.702;2022-09-29T20:11:31;22.20;51.90
36690;DHT22;22676;51.120;3.702;2022-09-29T20:14:22;22.30;51.60
36690;DHT22;22676;51.120;3.702;2022-09-29T20:17:13;22.20;51.40
36690;DHT22;22676;51.120;3.702;2022-09-29T20:20:04;22.20;51.30
36690;DHT22;22676;51.120;3.702;2022-09-29T20:22:55;22.20;51.30
36690;DHT22;22676;51.120;3.702;2022-09-29T20:25:46;22.10;51.20
36690;DHT22;22676;51.120;3.702;2022-09-29T20:28:37;22.20;51.60
36690;DHT22;22676;51.120;3.702;2022-09-29T20:31:28;22.20;51.50
36690;DHT22;22676;51.120;3.702;2022-09-29T20:34:19;22.20;51.70
36690;DHT22;22676;51.120;3.702;2022-09-29T20:37:10;22.30;52.30
36690;DHT22;22676;51.120;3.702;2022-09-29T21:22:20;22.30;54.70
36690;DHT22;22676;51.120;3.702;2022-09-29T21:25:11;22.30;54.70
36690;DHT22;22676;51.120;3.702;2022-09-29T21:28:01;22.20;54.30
36690;DHT22;22676;51.120;3.702;2022-09-29T21:31:01;22.20;53.10
36690;DHT22;22676;51.120;3.702;2022-09-29T21:33:54;22.20;52.90
36690;DHT22;22676;51.120;3.702;2022-09-29T21:36:45;22.10;54.20
36690;DHT22;22676;51.120;3.702;2022-09-29T21:39:36;22.20;54.50
36690;DHT22;22676;51.120;3.702;2022-09-29T21:42:27;22.10;54.90
36690;DHT22;22676;51.120;3.702;2022-09-29T21:45:18;22.20;55.10
36690;DHT22;22676;51.120;3.702;2022-09-29T21:48:09;22.20;55.30
36690;DHT22;22676;51.120;3.702;2022-09-29T21:51:02;22.20;55.20
36690;DHT22;22676;51.120;3.702;2022-09-29T21:53:53;22.10;55.30
36690;DHT22;22676;51.120;3.702;2022-09-29T21:56:44;22.10;55.40
36690;DHT22;22676;51.120;3.702;2022-09-29T21:59:35;22.10;55.30
36690;DHT22;22676;51.120;3.702;2022-09-29T22:02:26;22.20;55.50
36690;DHT22;22676;51.120;3.702;2022-09-29T22:05:30;22.10;55.40
36690;DHT22;22676;51.120;3.702;2022-09-29T22:08:21;22.20;55.50
36690;DHT22;22676;51.120;3.702;2022-09-29T22:11:12;22.10;55.50
36690;DHT22;22676;51.120;3.702;2022-09-29T22:14:03;22.10;55.60
36690;DHT22;22676;51.120;3.702;2022-09-29T22:16:54;22.10;55.60
36690;DHT22;22676;51.120;3.702;2022-09-29T22:19:45;22.10;55.80
36690;DHT22;22676;51.120;3.702;2022-09-29T22:22:36;22.10;55.70
36690;DHT22;22676;51.120;3.702;2022-09-29T22:25:27;22.10;55.70
36690;DHT22;22676;51.120;3.702;2022-09-29T22:28:18;22.10;54.60
36690;DHT22;22676;51.120;3.702;2022-09-29T22:31:10;22.10;53.40
36690;DHT22;22676;51.120;3.702;2022-09-29T22:34:02;22.00;53.10
36690;DHT22;22676;51.120;3.702;2022-09-29T22:36:52;22.00;54.50
36690;DHT22;22676;51.120;3.702;2022-09-29T22:39:43;22.00;54.70
36690;DHT22;22676;51.120;3.702;2022-09-29T22:42:34;22.00;55.00
36690;DHT22;22676;51.120;3.702;2022-09-29T22:45:25;22.00;55.40
36690;DHT22;22676;51.120;3.702;2022-09-29T22:48:16;22.00;55.50
36690;DHT22;22676;51.120;3.702;2022-09-29T22:51:08;22.00;55.70
36690;DHT22;22676;51.120;3.702;2022-09-29T22:53:58;22.00;55.60
36690;DHT22;22676;51.120;3.702;2022-09-29T22:56:49;22.00;55.70
36690;DHT22;22676;51.120;3.702;2022-09-29T22:59:40;22.00;55.60
36690;DHT22;22676;51.120;3.702;2022-09-29T23:02:31;22.00;55.70
